Time;durP1;ratioP1;P1;durP2;ratioP2;P2;SDS_P1;SDS_P2;PMS_P1;PMS_P2;Temp;Humidity;BMP_temperature;BMP_pressure;BME280_temperature;BME280_humidity;BME280_pressure;Samples;Min_cycle;Max_cycle;Signal;HPM_P1;HPM_P2
2024/02/05 00:02:09;;;;;;;27.40;4.30;;;;;;;;;;5029955;28;20656;-77
2024/02/05 00:04:35;;;;;;;18.92;3.65;;;;;;;;;;5045803;28;20667;-77
2024/02/05 00:07:01;;;;;;;23.88;4.60;;;;;;;;;;5031062;28;20764;-76
2024/02/05 00:09:26;;;;;;;22.33;4.47;;;;;;;;;;5030679;28;20252;-76
2024/02/05 00:11:52;;;;;;;21.80;4.28;;;;;;;;;;5039006;28;20546;-75
2024/02/05 00:14:17;;;;;;;21.40;4.10;;;;;;;;;;5052439;28;20193;-75
2024/02/05 00:16:43;;;;;;;18.52;4.68;;;;;;;;;;5024338;28;20190;-75
2024/02/05 00:19:08;;;;;;;18.90;4.45;;;;;;;;;;5050387;28;20224;-75
2024/02/05 00:21:34;;;;;;;20.58;5.22;;;;;;;;;;5040456;28;20289;-76
2024/02/05 00:24:00;;;;;;;22.75;3.58;;;;;;;;;;5019039;28;20190;-75
2024/02/05 00:26:25;;;;;;;15.32;4.05;;;;;;;;;;5047833;28;20269;-75
2024/02/05 00:28:51;;;;;;;20.90;4.13;;;;;;;;;;5026556;28;20264;-74
2024/02/05 00:31:16;;;;;;;16.88;4.05;;;;;;;;;;5035989;28;20190;-76
2024/02/05 00:33:41;;;;;;;20.40;4.30;;;;;;;;;;5045227;28;20177;-76
2024/02/05 00:36:07;;;;;;;19.05;3.78;;;;;;;;;;5036741;28;20197;-74
2024/02/05 00:38:33;;;;;;;16.25;4.57;;;;;;;;;;5048795;28;20205;-75
2024/02/05 00:40:58;;;;;;;24.30;5.45;;;;;;;;;;5035406;28;20224;-74
2024/02/05 00:43:24;;;;;;;15.85;4.18;;;;;;;;;;5031020;28;20606;-75
2024/02/05 00:45:49;;;;;;;23.38;4.38;;;;;;;;;;5033813;28;20668;-75
2024/02/05 00:48:15;;;;;;;17.92;3.97;;;;;;;;;;5043202;28;20186;-75
2024/02/05 00:50:41;;;;;;;16.10;3.38;;;;;;;;;;5041512;28;20243;-76
2024/02/05 00:53:07;;;;;;;23.05;4.30;;;;;;;;;;5040031;28;20684;-76
2024/02/05 00:55:32;;;;;;;19.23;4.70;;;;;;;;;;5030236;28;20178;-74
2024/02/05 00:57:58;;;;;;;17.33;3.97;;;;;;;;;;5031326;28;20198;-74
2024/02/05 01:00:23;;;;;;;18.50;3.55;;;;;;;;;;5033862;28;20209;-75
2024/02/05 01:02:51;;;;;;;21.17;4.10;;;;;;;;;;5014347;28;20205;-75
2024/02/05 01:05:17;;;;;;;17.77;3.85;;;;;;;;;;5036141;28;20221;-74
2024/02/05 01:07:42;;;;;;;29.02;4.60;;;;;;;;;;5032782;28;20204;-75
2024/02/05 01:10:10;;;;;;;27.20;4.65;;;;;;;;;;5043297;28;20688;-75
2024/02/05 01:12:36;;;;;;;21.10;4.00;;;;;;;;;;5027118;28;20190;-74
2024/02/05 01:15:03;;;;;;;20.63;3.75;;;;;;;;;;5030920;28;20182;-75
2024/02/05 01:17:29;;;;;;;17.70;4.93;;;;;;;;;;5039873;28;20315;-75
2024/02/05 01:19:54;;;;;;;27.05;4.18;;;;;;;;;;5036035;28;20292;-74
2024/02/05 01:22:20;;;;;;;18.25;3.45;;;;;;;;;;5050341;28;20189;-74
2024/02/05 01:24:45;;;;;;;23.40;4.63;;;;;;;;;;5050699;28;20701;-74
2024/02/05 01:27:10;;;;;;;19.05;4.63;;;;;;;;;;5034365;28;20328;-75
2024/02/05 01:29:36;;;;;;;20.67;5.03;;;;;;;;;;5048142;28;20268;-75
2024/02/05 01:32:01;;;;;;;23.77;4.47;;;;;;;;;;5049475;28;20306;-74
2024/02/05 01:34:27;;;;;;;24.42;4.40;;;;;;;;;;5029804;28;20186;-74
2024/02/05 01:36:52;;;;;;;22.63;3.97;;;;;;;;;;5043852;28;20196;-74
2024/02/05 01:39:18;;;;;;;19.60;4.55;;;;;;;;;;5029241;28;20217;-76
2024/02/05 01:41:44;;;;;;;21.23;4.85;;;;;;;;;;5030342;28;20592;-75
2024/02/05 01:44:09;;;;;;;17.65;4.38;;;;;;;;;;5042192;28;20186;-75
2024/02/05 01:46:36;;;;;;;20.65;4.38;;;;;;;;;;5026798;28;20189;-75
2024/02/05 01:49:06;;;;;;;20.85;4.22;;;;;;;;;;5027756;28;20520;-75
2024/02/05 01:51:38;;;;;;;18.25;4.30;;;;;;;;;;5029786;28;20190;-74
2024/02/05 01:54:05;;;;;;;17.15;4.38;;;;;;;;;;5049738;28;20891;-75
2024/02/05 01:56:32;;;;;;;25.00;4.60;;;;;;;;;;5038303;28;20194;-73
2024/02/05 01:59:01;;;;;;;27.17;4.93;;;;;;;;;;5048313;28;20637;-75
2024/02/05 02:01:28;;;;;;;21.80;4.97;;;;;;;;;;5043147;28;20496;-74
2024/02/05 02:03:54;;;;;;;22.42;5.28;;;;;;;;;;5034861;28;20285;-75
2024/02/05 02:06:20;;;;;;;27.20;4.47;;;;;;;;;;5048425;28;20189;-75
2024/02/05 02:08:48;;;;;;;29.98;5.10;;;;;;;;;;5035019;28;20616;-74
2024/02/05 02:11:13;;;;;;;22.13;4.75;;;;;;;;;;5035122;28;20200;-74
2024/02/05 02:13:39;;;;;;;24.83;5.05;;;;;;;;;;5032722;28;20561;-74
2024/02/05 02:16:10;;;;;;;29.45;5.28;;;;;;;;;;5048225;28;20184;-74
2024/02/05 02:18:37;;;;;;;28.08;5.43;;;;;;;;;;5044705;28;20236;-75
2024/02/05 02:21:04;;;;;;;21.52;4.78;;;;;;;;;;5038635;28;20308;-74
2024/02/05 02:23:32;;;;;;;21.17;4.28;;;;;;;;;;5031378;28;20205;-74
2024/02/05 02:25:58;;;;;;;31.55;5.85;;;;;;;;;;5020024;28;20288;-74
2024/02/05 02:28:24;;;;;;;23.60;5.28;;;;;;;;;;5042723;28;20584;-72
2024/02/05 02:30:51;;;;;;;22.30;4.63;;;;;;;;;;5018318;28;20243;-74
2024/02/05 02:33:32;;;;;;;23.30;5.13;;;;;;;;;;5045660;28;20234;-75
2024/02/05 02:36:06;;;;;;;29.92;4.93;;;;;;;;;;5031294;28;20201;-74
2024/02/05 02:39:03;;;;;;;25.88;4.80;;;;;;;;;;5049657;28;20680;-74
2024/02/05 02:41:34;;;;;;;23.65;6.03;;;;;;;;;;5035567;28;20668;-74
2024/02/05 02:44:01;;;;;;;23.25;4.57;;;;;;;;;;5022295;28;20697;-75
2024/02/05 02:46:31;;;;;;;31.42;5.30;;;;;;;;;;5040794;28;20185;-74
2024/02/05 02:48:57;;;;;;;22.65;4.97;;;;;;;;;;5035790;28;20210;-73
2024/02/05 02:51:23;;;;;;;28.60;5.03;;;;;;;;;;5034477;28;20208;-74
2024/02/05 02:53:49;;;;;;;26.27;5.40;;;;;;;;;;5036061;28;20186;-75
2024/02/05 02:56:14;;;;;;;24.48;4.97;;;;;;;;;;5043400;28;20258;-74
2024/02/05 02:58:40;;;;;;;30.52;5.28;;;;;;;;;;5036884;28;20268;-74
2024/02/05 03:01:05;;;;;;;17.42;4.38;;;;;;;;;;5026628;28;20689;-74
2024/02/05 03:03:31;;;;;;;31.58;5.30;;;;;;;;;;5031914;28;20186;-74
2024/02/05 03:05:56;;;;;;;26.48;5.80;;;;;;;;;;5045679;28;20177;-75
2024/02/05 03:08:23;;;;;;;21.00;4.97;;;;;;;;;;5048191;28;20177;-74
2024/02/05 03:10:48;;;;;;;23.55;6.45;;;;;;;;;;5031807;28;20182;-74
2024/02/05 03:13:14;;;;;;;34.53;5.30;;;;;;;;;;5032355;28;20220;-74
2024/02/05 03:15:40;;;;;;;30.00;5.57;;;;;;;;;;5032071;28;20224;-74
2024/02/05 03:18:07;;;;;;;28.13;5.00;;;;;;;;;;5042988;28;20262;-74
2024/02/05 03:20:37;;;;;;;25.23;5.35;;;;;;;;;;5039652;28;20669;-74
2024/02/05 03:23:10;;;;;;;27.48;4.93;;;;;;;;;;5033337;28;20565;-75
2024/02/05 03:25:37;;;;;;;25.27;5.03;;;;;;;;;;5032567;28;20248;-74
2024/02/05 03:28:03;;;;;;;26.65;5.38;;;;;;;;;;5036338;28;20189;-74
2024/02/05 03:30:29;;;;;;;22.77;5.32;;;;;;;;;;5015468;28;20605;-74
2024/02/05 03:32:59;;;;;;;30.80;5.22;;;;;;;;;;5029373;28;20264;-74
2024/02/05 03:35:26;;;;;;;29.60;4.88;;;;;;;;;;5027890;28;20187;-74
2024/02/05 03:37:52;;;;;;;27.40;6.43;;;;;;;;;;5045721;28;20231;-74
2024/02/05 03:40:18;;;;;;;25.05;5.30;;;;;;;;;;5036368;28;20198;-74
2024/02/05 03:42:43;;;;;;;29.75;5.43;;;;;;;;;;5028768;28;20233;-73
2024/02/05 03:45:09;;;;;;;24.85;4.80;;;;;;;;;;5025930;28;20182;-74
2024/02/05 03:47:35;;;;;;;33.03;6.32;;;;;;;;;;5042342;28;20205;-74
2024/02/05 03:50:00;;;;;;;34.47;6.07;;;;;;;;;;5050057;28;20215;-74
2024/02/05 03:52:26;;;;;;;29.45;5.35;;;;;;;;;;5042374;28;20245;-74
2024/02/05 03:54:51;;;;;;;35.28;5.95;;;;;;;;;;5046405;28;20668;-74
2024/02/05 03:57:18;;;;;;;25.10;5.50;;;;;;;;;;5047547;28;20193;-74
2024/02/05 03:59:44;;;;;;;40.15;5.28;;;;;;;;;;5048334;28;20259;-74
2024/02/05 04:02:10;;;;;;;32.90;6.38;;;;;;;;;;5036102;28;20711;-75
2024/02/05 04:04:37;;;;;;;27.75;5.43;;;;;;;;;;5041670;28;20189;-75
2024/02/05 04:07:03;;;;;;;36.67;6.22;;;;;;;;;;5037783;28;20672;-74
2024/02/05 04:09:28;;;;;;;19.50;4.90;;;;;;;;;;5047035;28;20227;-74
2024/02/05 04:11:54;;;;;;;33.42;5.90;;;;;;;;;;5041031;28;20197;-75
2024/02/05 04:14:20;;;;;;;28.45;5.60;;;;;;;;;;5031122;28;20695;-75
2024/02/05 04:16:48;;;;;;;33.13;5.35;;;;;;;;;;5031257;28;20265;-75
2024/02/05 04:19:13;;;;;;;25.95;6.05;;;;;;;;;;5044480;28;20214;-74
2024/02/05 04:21:39;;;;;;;33.28;5.95;;;;;;;;;;5042015;28;20268;-75
2024/02/05 04:24:04;;;;;;;33.10;5.75;;;;;;;;;;5052017;28;20683;-75
2024/02/05 04:26:30;;;;;;;26.73;5.65;;;;;;;;;;5045673;28;20208;-74
2024/02/05 04:28:55;;;;;;;30.05;6.15;;;;;;;;;;5040350;28;20205;-74
2024/02/05 04:31:21;;;;;;;24.80;6.28;;;;;;;;;;5051317;28;20224;-76
2024/02/05 04:33:48;;;;;;;29.20;6.38;;;;;;;;;;5051493;28;20287;-74
2024/02/05 04:36:15;;;;;;;32.88;5.63;;;;;;;;;;5029605;28;20304;-75
2024/02/05 04:38:41;;;;;;;30.55;5.93;;;;;;;;;;5030728;28;20278;-75
2024/02/05 04:41:08;;;;;;;27.65;5.35;;;;;;;;;;5035974;28;20268;-75
2024/02/05 04:43:37;;;;;;;32.60;5.72;;;;;;;;;;5045762;28;20217;-74
2024/02/05 04:46:03;;;;;;;28.52;5.10;;;;;;;;;;5040728;28;20189;-74
2024/02/05 04:48:29;;;;;;;27.95;6.03;;;;;;;;;;5034564;28;20186;-75
2024/02/05 04:50:55;;;;;;;29.30;5.63;;;;;;;;;;5037068;28;20256;-74
2024/02/05 04:53:20;;;;;;;24.52;5.65;;;;;;;;;;5038665;28;20193;-74
2024/02/05 04:55:46;;;;;;;21.85;4.53;;;;;;;;;;5042755;28;20188;-75
2024/02/05 04:58:11;;;;;;;26.08;5.53;;;;;;;;;;5031215;28;20232;-75
2024/02/05 05:00:37;;;;;;;32.30;5.65;;;;;;;;;;5041474;28;20184;-75
2024/02/05 05:03:03;;;;;;;24.88;5.57;;;;;;;;;;5050181;28;20186;-74
2024/02/05 05:05:28;;;;;;;27.52;5.28;;;;;;;;;;5035181;28;20182;-74
2024/02/05 05:07:54;;;;;;;24.25;5.10;;;;;;;;;;5036553;28;20670;-74
2024/02/05 05:10:19;;;;;;;26.15;5.03;;;;;;;;;;5042383;28;20181;-74
2024/02/05 05:12:45;;;;;;;27.95;5.47;;;;;;;;;;5036154;28;20245;-74
2024/02/05 05:15:15;;;;;;;36.25;6.93;;;;;;;;;;5041710;28;20175;-75
2024/02/05 05:17:41;;;;;;;26.05;6.43;;;;;;;;;;5038347;28;20239;-75
2024/02/05 05:20:07;;;;;;;31.35;5.22;;;;;;;;;;5035936;28;20296;-75
2024/02/05 05:22:33;;;;;;;29.00;5.55;;;;;;;;;;5029515;28;20593;-74
2024/02/05 05:24:58;;;;;;;29.88;5.22;;;;;;;;;;5031517;28;20185;-74
2024/02/05 05:27:23;;;;;;;31.42;5.32;;;;;;;;;;5027861;28;20197;-75
2024/02/05 05:29:49;;;;;;;25.13;5.47;;;;;;;;;;5043734;28;20186;-74
2024/02/05 05:32:14;;;;;;;30.95;6.35;;;;;;;;;;5040699;28;20484;-74
2024/02/05 05:34:40;;;;;;;29.25;4.97;;;;;;;;;;5033472;28;20487;-74
2024/02/05 05:37:06;;;;;;;30.83;6.18;;;;;;;;;;5032128;28;20329;-74
2024/02/05 05:39:31;;;;;;;27.90;5.97;;;;;;;;;;5030775;28;20289;-74
2024/02/05 05:41:57;;;;;;;27.92;6.25;;;;;;;;;;5043966;28;20561;-74
2024/02/05 05:44:22;;;;;;;30.30;5.50;;;;;;;;;;5048954;28;20191;-74
2024/02/05 05:46:47;;;;;;;25.92;5.85;;;;;;;;;;5051093;28;20301;-74
2024/02/05 05:49:13;;;;;;;31.70;6.00;;;;;;;;;;5029718;28;20208;-75
2024/02/05 05:51:38;;;;;;;26.92;5.68;;;;;;;;;;5036523;28;20259;-75
2024/02/05 05:54:04;;;;;;;28.20;5.63;;;;;;;;;;5035042;28;20304;-75
2024/02/05 05:56:29;;;;;;;37.47;5.93;;;;;;;;;;5034879;28;20583;-75
2024/02/05 05:58:55;;;;;;;30.48;5.78;;;;;;;;;;5047266;28;20214;-76
2024/02/05 06:01:21;;;;;;;27.20;5.05;;;;;;;;;;5038146;28;20201;-75
2024/02/05 06:03:46;;;;;;;26.00;5.88;;;;;;;;;;5038798;28;20232;-75
2024/02/05 06:06:12;;;;;;;28.63;5.35;;;;;;;;;;5033696;28;20646;-75
2024/02/05 06:08:38;;;;;;;27.10;5.40;;;;;;;;;;5042003;28;20178;-74
2024/02/05 06:11:03;;;;;;;34.47;5.57;;;;;;;;;;5039197;28;20197;-74
2024/02/05 06:13:30;;;;;;;30.63;5.70;;;;;;;;;;5031986;28;20186;-74
2024/02/05 06:15:55;;;;;;;30.63;5.22;;;;;;;;;;5031833;28;20272;-74
2024/02/05 06:18:21;;;;;;;27.20;5.07;;;;;;;;;;5036028;28;20328;-75
2024/02/05 06:20:46;;;;;;;22.75;5.32;;;;;;;;;;5044527;28;20600;-75
2024/02/05 06:23:11;;;;;;;29.55;5.88;;;;;;;;;;5032192;28;20262;-74
2024/02/05 06:25:37;;;;;;;23.00;5.20;;;;;;;;;;5040309;28;20237;-74
2024/02/05 06:28:03;;;;;;;22.27;4.57;;;;;;;;;;5042364;28;20185;-74
2024/02/05 06:30:28;;;;;;;25.33;4.47;;;;;;;;;;5037748;28;20193;-74
2024/02/05 06:32:53;;;;;;;33.03;5.72;;;;;;;;;;5025258;28;20208;-74
2024/02/05 06:35:19;;;;;;;21.92;5.47;;;;;;;;;;5042331;28;20201;-74
2024/02/05 06:37:44;;;;;;;25.40;5.60;;;;;;;;;;5026008;28;20182;-74
2024/02/05 06:40:10;;;;;;;31.20;6.82;;;;;;;;;;5040209;28;20213;-74
2024/02/05 06:42:35;;;;;;;31.45;6.40;;;;;;;;;;5038405;28;20186;-74
2024/02/05 06:45:03;;;;;;;22.20;5.55;;;;;;;;;;5033976;28;20661;-73
2024/02/05 06:47:28;;;;;;;28.88;5.60;;;;;;;;;;5037729;28;20373;-74
2024/02/05 06:49:54;;;;;;;26.42;6.53;;;;;;;;;;5034946;28;20275;-74
2024/02/05 06:52:19;;;;;;;28.88;6.50;;;;;;;;;;5035647;28;20189;-74
2024/02/05 06:54:45;;;;;;;36.55;6.18;;;;;;;;;;5040245;28;20189;-74
2024/02/05 06:57:10;;;;;;;23.05;5.25;;;;;;;;;;5040739;28;20281;-74
2024/02/05 06:59:36;;;;;;;30.10;5.45;;;;;;;;;;5032409;28;20213;-74
2024/02/05 07:02:01;;;;;;;29.58;6.47;;;;;;;;;;5031980;28;20202;-74
2024/02/05 07:04:27;;;;;;;29.73;6.57;;;;;;;;;;5039694;28;20208;-75
2024/02/05 07:06:52;;;;;;;29.15;5.90;;;;;;;;;;5037293;28;20648;-74
2024/02/05 07:09:18;;;;;;;22.58;5.82;;;;;;;;;;5037650;28;20293;-74
2024/02/05 07:11:43;;;;;;;28.33;5.72;;;;;;;;;;5031038;28;20331;-74
2024/02/05 07:14:08;;;;;;;30.20;6.20;;;;;;;;;;5038814;28;20263;-74
2024/02/05 07:16:34;;;;;;;22.00;6.03;;;;;;;;;;5036468;28;20190;-74
2024/02/05 07:18:59;;;;;;;25.40;5.20;;;;;;;;;;5028715;28;20237;-75
2024/02/05 07:21:25;;;;;;;28.10;5.60;;;;;;;;;;5045152;28;20205;-75
2024/02/05 07:23:50;;;;;;;32.83;6.00;;;;;;;;;;5036516;28;20186;-74
2024/02/05 07:26:16;;;;;;;25.92;5.82;;;;;;;;;;5036743;28;20190;-74
2024/02/05 07:28:42;;;;;;;24.15;5.68;;;;;;;;;;5046049;28;20518;-74
2024/02/05 07:31:08;;;;;;;25.38;5.50;;;;;;;;;;5044202;28;20216;-74
2024/02/05 07:33:33;;;;;;;28.23;5.80;;;;;;;;;;5026425;28;20239;-74
2024/02/05 07:35:59;;;;;;;27.92;5.82;;;;;;;;;;5042955;28;20276;-74
2024/02/05 07:38:24;;;;;;;26.75;5.53;;;;;;;;;;5034735;28;20217;-74
2024/02/05 07:40:50;;;;;;;31.77;5.93;;;;;;;;;;5039369;28;20174;-74
2024/02/05 07:43:16;;;;;;;30.13;6.03;;;;;;;;;;5038716;28;20183;-74
2024/02/05 07:45:41;;;;;;;26.60;5.38;;;;;;;;;;5039931;28;20422;-74
2024/02/05 07:48:09;;;;;;;24.15;5.25;;;;;;;;;;5038302;28;20514;-74
2024/02/05 07:50:34;;;;;;;32.50;6.15;;;;;;;;;;5040740;28;20189;-74
2024/02/05 07:53:00;;;;;;;34.13;6.10;;;;;;;;;;5041052;28;20262;-75
2024/02/05 07:55:25;;;;;;;25.02;5.40;;;;;;;;;;5054228;28;20605;-73
2024/02/05 07:57:50;;;;;;;28.77;5.70;;;;;;;;;;5038901;28;20188;-74
2024/02/05 08:00:16;;;;;;;31.30;6.10;;;;;;;;;;5046169;28;20233;-74
2024/02/05 08:02:42;;;;;;;25.25;5.85;;;;;;;;;;5033616;28;20178;-73
2024/02/05 08:05:07;;;;;;;29.08;6.43;;;;;;;;;;5042607;28;20196;-73
2024/02/05 08:07:33;;;;;;;27.63;6.15;;;;;;;;;;5047200;28;20671;-73
2024/02/05 08:09:58;;;;;;;23.77;5.20;;;;;;;;;;5041145;28;20194;-75
2024/02/05 08:12:24;;;;;;;25.70;5.53;;;;;;;;;;5044333;28;20281;-75
2024/02/05 08:14:50;;;;;;;26.00;5.22;;;;;;;;;;5040940;28;20214;-74
2024/02/05 08:17:16;;;;;;;30.75;6.18;;;;;;;;;;5046325;28;20587;-74
2024/02/05 08:19:41;;;;;;;24.42;5.65;;;;;;;;;;5037565;28;20209;-74
2024/02/05 08:22:07;;;;;;;29.40;6.00;;;;;;;;;;5034390;28;20205;-75
2024/02/05 08:24:32;;;;;;;28.70;5.68;;;;;;;;;;5030798;28;20181;-74
2024/02/05 08:26:58;;;;;;;28.17;5.40;;;;;;;;;;5049228;28;20319;-74
2024/02/05 08:29:23;;;;;;;25.25;5.90;;;;;;;;;;5055928;28;20649;-74
2024/02/05 08:31:49;;;;;;;24.25;5.45;;;;;;;;;;5046636;28;20553;-75
2024/02/05 08:34:15;;;;;;;26.60;6.05;;;;;;;;;;5044576;28;20204;-74
2024/02/05 08:36:40;;;;;;;34.55;5.45;;;;;;;;;;5047357;28;20826;-74
2024/02/05 08:39:10;;;;;;;32.22;5.53;;;;;;;;;;5051212;28;20209;-74
2024/02/05 08:41:36;;;;;;;28.73;5.45;;;;;;;;;;5050327;28;20267;-73
2024/02/05 08:44:02;;;;;;;31.73;5.55;;;;;;;;;;5039492;28;20233;-74
2024/02/05 08:46:27;;;;;;;35.58;6.15;;;;;;;;;;5032602;28;20649;-73
2024/02/05 08:48:52;;;;;;;26.75;5.55;;;;;;;;;;5034971;28;20193;-73
2024/02/05 08:51:19;;;;;;;27.25;5.38;;;;;;;;;;5036160;28;20178;-74
2024/02/05 08:53:46;;;;;;;33.25;5.63;;;;;;;;;;5021990;28;20605;-74
2024/02/05 08:56:12;;;;;;;27.05;5.80;;;;;;;;;;5049603;28;20574;-74
2024/02/05 08:58:37;;;;;;;22.45;5.43;;;;;;;;;;5041150;28;20293;-74
2024/02/05 09:01:03;;;;;;;28.00;5.82;;;;;;;;;;5034440;28;20277;-74
2024/02/05 09:03:29;;;;;;;29.40;6.28;;;;;;;;;;5043044;28;20676;-74
2024/02/05 09:05:55;;;;;;;23.73;5.35;;;;;;;;;;5043048;28;20221;-74
2024/02/05 09:08:20;;;;;;;27.52;7.22;;;;;;;;;;5033046;28;20200;-74
2024/02/05 09:10:45;;;;;;;26.48;5.88;;;;;;;;;;5037945;28;20723;-73
2024/02/05 09:13:11;;;;;;;29.10;6.30;;;;;;;;;;5050193;28;20264;-74
2024/02/05 09:15:39;;;;;;;37.30;6.28;;;;;;;;;;5037468;28;20186;-74
2024/02/05 09:18:05;;;;;;;25.00;6.38;;;;;;;;;;5041479;28;20595;-74
2024/02/05 09:20:31;;;;;;;30.83;5.95;;;;;;;;;;5039475;28;20204;-73
2024/02/05 09:22:56;;;;;;;28.60;6.03;;;;;;;;;;5046719;28;20625;-75
2024/02/05 09:25:22;;;;;;;23.73;6.28;;;;;;;;;;5044109;28;20636;-73
2024/02/05 09:27:48;;;;;;;30.00;6.75;;;;;;;;;;5042061;28;20257;-74
2024/02/05 09:30:13;;;;;;;30.98;5.82;;;;;;;;;;5039036;28;20206;-74
2024/02/05 09:32:39;;;;;;;28.88;6.57;;;;;;;;;;5044073;28;20269;-74
2024/02/05 09:35:05;;;;;;;30.30;7.03;;;;;;;;;;5044139;28;20194;-74
2024/02/05 09:37:30;;;;;;;26.67;6.20;;;;;;;;;;5039825;28;20193;-73
2024/02/05 09:39:55;;;;;;;30.00;6.82;;;;;;;;;;5043135;28;20221;-74
2024/02/05 09:42:21;;;;;;;31.45;7.07;;;;;;;;;;5037052;28;20504;-74
2024/02/05 09:44:50;;;;;;;31.98;6.40;;;;;;;;;;5035804;28;20182;-74
2024/02/05 09:47:18;;;;;;;28.95;6.35;;;;;;;;;;5039083;28;20227;-74
2024/02/05 09:49:48;;;;;;;36.55;6.82;;;;;;;;;;5044264;28;20225;-74
2024/02/05 09:52:15;;;;;;;29.50;6.75;;;;;;;;;;5039753;28;20579;-74
2024/02/05 09:54:45;;;;;;;27.20;7.07;;;;;;;;;;5043210;28;20239;-74
2024/02/05 09:57:11;;;;;;;23.08;5.50;;;;;;;;;;5042208;28;20194;-73
2024/02/05 09:59:40;;;;;;;30.40;6.45;;;;;;;;;;5038095;28;20267;-74
2024/02/05 10:02:07;;;;;;;28.63;5.85;;;;;;;;;;5039306;28;20193;-74
2024/02/05 10:04:42;;;;;;;35.38;7.18;;;;;;;;;;5011892;28;20542;-73
2024/02/05 10:07:15;;;;;;;27.75;7.03;;;;;;;;;;5028979;28;20563;-75
2024/02/05 10:09:42;;;;;;;23.80;5.75;;;;;;;;;;5042280;28;20178;-73
2024/02/05 10:12:12;;;;;;;27.20;6.47;;;;;;;;;;5034394;28;20186;-74
2024/02/05 10:14:42;;;;;;;19.52;6.25;;;;;;;;;;5027995;28;20233;-73
2024/02/05 10:17:07;;;;;;;32.25;6.45;;;;;;;;;;5034639;28;20249;-74
2024/02/05 10:19:34;;;;;;;30.90;6.00;;;;;;;;;;5041861;28;20213;-74
2024/02/05 10:22:00;;;;;;;26.55;6.72;;;;;;;;;;5035397;28;20197;-73
2024/02/05 10:24:26;;;;;;;32.58;7.53;;;;;;;;;;5045469;28;20186;-75
2024/02/05 10:26:51;;;;;;;25.42;6.25;;;;;;;;;;5030276;28;20586;-74
2024/02/05 10:29:20;;;;;;;30.55;6.97;;;;;;;;;;5039094;28;20557;-74
2024/02/05 10:31:50;;;;;;;26.17;6.13;;;;;;;;;;5042449;28;20259;-75
2024/02/05 10:34:18;;;;;;;24.50;6.05;;;;;;;;;;5030220;28;20197;-74
2024/02/05 10:36:43;;;;;;;31.10;6.95;;;;;;;;;;5042316;28;20185;-74
2024/02/05 10:39:09;;;;;;;24.10;5.63;;;;;;;;;;5042456;28;20632;-75
2024/02/05 10:41:38;;;;;;;27.90;6.15;;;;;;;;;;5032811;28;20209;-74
2024/02/05 10:44:03;;;;;;;28.98;6.38;;;;;;;;;;5031948;28;20186;-73
2024/02/05 10:46:32;;;;;;;32.38;6.60;;;;;;;;;;5028588;28;20193;-74
2024/02/05 10:48:59;;;;;;;25.85;5.18;;;;;;;;;;5035812;28;20189;-74
2024/02/05 10:51:26;;;;;;;26.40;6.65;;;;;;;;;;5027986;28;20264;-73
2024/02/05 10:53:52;;;;;;;23.73;5.40;;;;;;;;;;5027523;28;20516;-74
2024/02/05 10:56:19;;;;;;;32.47;6.60;;;;;;;;;;5027349;28;20193;-73
2024/02/05 10:58:45;;;;;;;23.25;5.35;;;;;;;;;;5031138;28;20224;-73
2024/02/05 11:01:15;;;;;;;25.63;5.82;;;;;;;;;;5039709;28;20261;-74
2024/02/05 11:03:43;;;;;;;20.23;5.47;;;;;;;;;;5041028;28;20188;-74
2024/02/05 11:06:11;;;;;;;24.05;5.07;;;;;;;;;;5027810;28;20234;-74
2024/02/05 11:08:38;;;;;;;29.02;5.82;;;;;;;;;;5028898;28;20188;-74
2024/02/05 11:11:09;;;;;;;19.38;5.07;;;;;;;;;;5043007;28;20700;-74
2024/02/05 11:13:51;;;;;;;26.17;6.15;;;;;;;;;;5035944;28;20607;-74
2024/02/05 11:16:18;;;;;;;41.00;6.32;;;;;;;;;;5034865;28;20194;-74
2024/02/05 11:18:50;;;;;;;19.10;5.63;;;;;;;;;;5037730;28;20247;-74
2024/02/05 11:21:24;;;;;;;26.48;5.88;;;;;;;;;;5038472;28;20186;-74
2024/02/05 11:23:51;;;;;;;31.98;6.60;;;;;;;;;;5027443;28;20190;-75
2024/02/05 11:26:17;;;;;;;21.13;5.85;;;;;;;;;;5039342;28;20229;-74
2024/02/05 11:28:48;;;;;;;35.97;6.72;;;;;;;;;;5037253;28;20254;-74
2024/02/05 11:31:14;;;;;;;27.58;7.00;;;;;;;;;;5034309;28;20189;-74
2024/02/05 11:33:40;;;;;;;30.65;6.57;;;;;;;;;;5031961;28;20186;-74
2024/02/05 11:36:13;;;;;;;31.15;7.53;;;;;;;;;;5029005;28;20265;-74
2024/02/05 11:38:40;;;;;;;26.42;6.88;;;;;;;;;;5028941;28;20692;-74
2024/02/05 11:41:05;;;;;;;25.45;6.95;;;;;;;;;;5026806;28;20626;-74
2024/02/05 11:43:32;;;;;;;21.75;6.65;;;;;;;;;;5037129;28;20250;-75
2024/02/05 11:45:57;;;;;;;30.08;7.85;;;;;;;;;;5039639;28;20189;-74
2024/02/05 11:48:24;;;;;;;28.55;7.70;;;;;;;;;;5027979;28;20277;-74
2024/02/05 11:50:49;;;;;;;24.85;9.07;;;;;;;;;;5032588;28;20249;-74
2024/02/05 11:53:20;;;;;;;32.17;7.82;;;;;;;;;;5029260;28;20202;-75
2024/02/05 11:55:45;;;;;;;26.35;7.78;;;;;;;;;;5042478;28;20667;-75
2024/02/05 11:58:11;;;;;;;22.70;7.20;;;;;;;;;;5029177;28;20285;-75
2024/02/05 12:00:37;;;;;;;30.98;7.95;;;;;;;;;;5037501;28;20189;-75
2024/02/05 12:03:04;;;;;;;25.63;7.88;;;;;;;;;;5040850;28;20192;-76
2024/02/05 12:05:30;;;;;;;28.83;7.45;;;;;;;;;;5027617;28;20248;-75
2024/02/05 12:07:56;;;;;;;26.52;7.88;;;;;;;;;;5026310;28;20185;-75
2024/02/05 12:10:23;;;;;;;25.33;7.03;;;;;;;;;;5034308;28;20212;-74
2024/02/05 12:12:48;;;;;;;30.30;7.22;;;;;;;;;;5040515;28;20668;-75
2024/02/05 12:15:27;;;;;;;29.50;6.47;;;;;;;;;;5035724;28;20217;-75
2024/02/05 12:18:03;;;;;;;25.70;7.45;;;;;;;;;;5042062;28;20225;-76
2024/02/05 12:20:29;;;;;;;21.98;5.97;;;;;;;;;;5040065;28;20209;-76
2024/02/05 12:22:55;;;;;;;30.15;6.50;;;;;;;;;;5032550;28;20284;-75
2024/02/05 12:25:21;;;;;;;28.50;6.50;;;;;;;;;;5022314;28;20277;-76
2024/02/05 12:27:47;;;;;;;27.40;6.63;;;;;;;;;;5040131;28;20660;-75
2024/02/05 12:30:13;;;;;;;27.75;6.13;;;;;;;;;;5033677;28;20182;-76
2024/02/05 12:32:39;;;;;;;25.45;6.18;;;;;;;;;;5047799;28;20183;-76
2024/02/05 12:35:05;;;;;;;22.65;5.57;;;;;;;;;;5041122;28;20231;-77
2024/02/05 12:37:31;;;;;;;25.83;6.25;;;;;;;;;;5041025;28;20190;-76
2024/02/05 12:39:56;;;;;;;27.17;6.03;;;;;;;;;;5052435;28;20205;-76
2024/02/05 12:42:26;;;;;;;25.92;6.15;;;;;;;;;;5050732;28;20234;-75
2024/02/05 12:44:51;;;;;;;30.05;5.90;;;;;;;;;;5041108;28;20193;-76
2024/02/05 12:47:18;;;;;;;28.20;6.15;;;;;;;;;;5039280;28;20190;-75
2024/02/05 12:49:44;;;;;;;25.20;6.53;;;;;;;;;;5031591;28;20183;-75
2024/02/05 12:52:10;;;;;;;25.15;6.28;;;;;;;;;;5029223;28;20511;-75
2024/02/05 12:54:37;;;;;;;25.38;5.90;;;;;;;;;;5047353;28;20184;-77
2024/02/05 12:57:04;;;;;;;24.85;6.55;;;;;;;;;;5035829;28;20262;-76
2024/02/05 12:59:29;;;;;;;22.90;5.43;;;;;;;;;;5040811;28;20228;-75
2024/02/05 13:01:55;;;;;;;19.70;5.47;;;;;;;;;;5044019;28;20185;-77
2024/02/05 13:04:21;;;;;;;22.80;5.50;;;;;;;;;;5035068;28;20194;-75
2024/02/05 13:06:47;;;;;;;26.15;5.90;;;;;;;;;;5048374;28;20264;-74
2024/02/05 13:09:12;;;;;;;28.95;6.25;;;;;;;;;;5042400;28;20697;-76
2024/02/05 13:11:38;;;;;;;26.15;6.13;;;;;;;;;;5042152;28;20224;-77
2024/02/05 13:14:06;;;;;;;30.27;5.97;;;;;;;;;;5033307;28;20186;-75
2024/02/05 13:16:31;;;;;;;21.80;5.70;;;;;;;;;;5049475;28;20186;-75
2024/02/05 13:18:57;;;;;;;26.23;5.45;;;;;;;;;;5045533;28;20229;-76
2024/02/05 13:21:22;;;;;;;26.77;5.03;;;;;;;;;;5047111;28;20181;-76
2024/02/05 13:23:49;;;;;;;29.83;6.00;;;;;;;;;;5035707;28;20244;-74
2024/02/05 13:26:15;;;;;;;24.45;5.53;;;;;;;;;;5025599;28;20243;-74
2024/02/05 13:28:41;;;;;;;25.33;5.65;;;;;;;;;;5033928;28;20184;-76
2024/02/05 13:31:07;;;;;;;24.92;5.68;;;;;;;;;;5044909;28;20186;-75
2024/02/05 13:33:32;;;;;;;33.70;6.55;;;;;;;;;;5045908;28;20198;-75
2024/02/05 13:35:58;;;;;;;25.88;5.85;;;;;;;;;;5042181;28;20273;-74
2024/02/05 13:38:24;;;;;;;24.15;4.75;;;;;;;;;;5031630;28;20194;-75
2024/02/05 13:40:49;;;;;;;31.50;6.85;;;;;;;;;;5045157;28;20190;-76
2024/02/05 13:43:15;;;;;;;24.73;5.45;;;;;;;;;;5032540;28;20185;-74
2024/02/05 13:45:42;;;;;;;25.00;5.85;;;;;;;;;;5046916;28;20580;-75
2024/02/05 13:48:08;;;;;;;28.60;5.93;;;;;;;;;;5034572;28;20189;-75
2024/02/05 13:50:33;;;;;;;28.23;5.25;;;;;;;;;;5035747;28;20182;-74
2024/02/05 13:53:00;;;;;;;29.05;5.38;;;;;;;;;;5046224;28;20178;-74
2024/02/05 13:55:25;;;;;;;20.65;5.95;;;;;;;;;;5028761;28;20181;-76
2024/02/05 13:57:51;;;;;;;25.75;5.13;;;;;;;;;;5030926;28;20275;-74
2024/02/05 14:00:16;;;;;;;20.15;4.55;;;;;;;;;;5030583;28;20213;-75
2024/02/05 14:02:43;;;;;;;27.92;5.93;;;;;;;;;;5048426;28;20589;-74
2024/02/05 14:05:10;;;;;;;24.20;6.63;;;;;;;;;;5043916;28;20202;-75
2024/02/05 14:07:36;;;;;;;21.63;5.47;;;;;;;;;;5033329;28;20181;-74
2024/02/05 14:10:03;;;;;;;25.02;6.30;;;;;;;;;;5041098;28;20190;-74
2024/02/05 14:12:28;;;;;;;28.35;5.45;;;;;;;;;;5042344;28;20503;-75
2024/02/05 14:14:53;;;;;;;20.88;5.25;;;;;;;;;;5037793;28;20251;-75
2024/02/05 14:17:19;;;;;;;25.20;6.10;;;;;;;;;;5048958;28;20663;-74
2024/02/05 14:19:44;;;;;;;24.48;6.05;;;;;;;;;;5025108;28;20643;-74
2024/02/05 14:22:10;;;;;;;23.20;5.57;;;;;;;;;;5045082;28;20178;-75
2024/02/05 14:24:35;;;;;;;25.42;5.28;;;;;;;;;;5037014;28;20697;-74
2024/02/05 14:27:01;;;;;;;25.98;6.38;;;;;;;;;;5038864;28;20235;-75